SWA2746 KBWI-KPVD
Flight info
| Callsign | SWA2746 |
|---|---|
| Flight time | 0h 57m |
| Altitude | 33000 |
| Route | DUKPN1 BROSS Q419 RBV Q430 CREEL ORCHA JORDN JORDN2 |
| Aircraft | B737/M-SADE2E3GIJ4RWZ/LB1D1 |
Departure
| Time | 2026-05-08 13:24 |
|---|---|
| Airport | Baltimore/Washington International Thurgood Marshall Airport (KBWI) |
Arrival
| Time | 2026-05-08 14:21 |
|---|---|
| Airport | Rhode Island T. F. Green International Airport (KPVD) |
| Time | Latitude | Longitude | Altitude | Speed | Heading |
|---|---|---|---|---|---|
| 2026-05-08 12:42 | 39.17714 | -76.67055 | 155 ft | 0 kts | 90° |
| 2026-05-08 13:09 | 39.17714 | -76.67061 | 155 ft | 4 kts | 92° |
| 2026-05-08 13:10 | 39.17715 | -76.67094 | 155 ft | 4 kts | 92° |
| 2026-05-08 13:10 | 39.17716 | -76.67128 | 155 ft | 3 kts | 92° |
| 2026-05-08 13:10 | 39.17719 | -76.67156 | 155 ft | 4 kts | 123° |
| 2026-05-08 13:10 | 39.17738 | -76.67178 | 155 ft | 3 kts | 145° |
| 2026-05-08 13:11 | 39.17745 | -76.67184 | 155 ft | 0 kts | 144° |
| 2026-05-08 13:13 | 39.17744 | -76.67184 | 155 ft | 1 kts | 144° |
| 2026-05-08 13:13 | 39.17715 | -76.67156 | 155 ft | 8 kts | 143° |
| 2026-05-08 13:13 | 39.17662 | -76.67104 | 155 ft | 11 kts | 143° |
| 2026-05-08 13:14 | 39.17598 | -76.67044 | 158 ft | 11 kts | 144° |
| 2026-05-08 13:14 | 39.17545 | -76.66971 | 156 ft | 11 kts | 113° |
| 2026-05-08 13:14 | 39.17530 | -76.66875 | 155 ft | 11 kts | 105° |
| 2026-05-08 13:14 | 39.17473 | -76.66813 | 154 ft | 11 kts | 132° |
| 2026-05-08 13:15 | 39.17457 | -76.66721 | 153 ft | 11 kts | 94° |
| 2026-05-08 13:15 | 39.17447 | -76.66626 | 153 ft | 11 kts | 113° |
| 2026-05-08 13:15 | 39.17387 | -76.66589 | 152 ft | 10 kts | 184° |
| 2026-05-08 13:15 | 39.17317 | -76.66596 | 151 ft | 10 kts | 184° |
| 2026-05-08 13:16 | 39.17249 | -76.66604 | 152 ft | 10 kts | 186° |
| 2026-05-08 13:16 | 39.17182 | -76.66613 | 152 ft | 9 kts | 186° |
| 2026-05-08 13:16 | 39.17118 | -76.66620 | 151 ft | 9 kts | 184° |
| 2026-05-08 13:16 | 39.17055 | -76.66623 | 150 ft | 9 kts | 181° |
| 2026-05-08 13:17 | 39.17041 | -76.66575 | 150 ft | 3 kts | 41° |
| 2026-05-08 13:17 | 39.17078 | -76.66597 | 153 ft | 11 kts | 329° |
| 2026-05-08 13:17 | 39.17163 | -76.66612 | 152 ft | 14 kts | 3° |
| 2026-05-08 13:17 | 39.17268 | -76.66605 | 152 ft | 15 kts | 3° |
| 2026-05-08 13:18 | 39.17372 | -76.66593 | 152 ft | 15 kts | 5° |
| 2026-05-08 13:18 | 39.17455 | -76.66536 | 153 ft | 14 kts | 65° |
| 2026-05-08 13:18 | 39.17513 | -76.66440 | 153 ft | 13 kts | 49° |
| 2026-05-08 13:18 | 39.17507 | -76.66334 | 149 ft | 14 kts | 124° |
| 2026-05-08 13:19 | 39.17458 | -76.66218 | 148 ft | 15 kts | 101° |
| 2026-05-08 13:19 | 39.17450 | -76.66090 | 148 ft | 14 kts | 94° |
| 2026-05-08 13:19 | 39.17442 | -76.65967 | 146 ft | 13 kts | 95° |
| 2026-05-08 13:19 | 39.17434 | -76.65850 | 144 ft | 13 kts | 95° |
| 2026-05-08 13:20 | 39.17428 | -76.65726 | 141 ft | 14 kts | 92° |
| 2026-05-08 13:20 | 39.17422 | -76.65600 | 141 ft | 14 kts | 94° |
| 2026-05-08 13:20 | 39.17379 | -76.65522 | 140 ft | 6 kts | 172° |
| 2026-05-08 13:20 | 39.17376 | -76.65521 | 140 ft | 0 kts | 176° |
| 2026-05-08 13:22 | 39.17372 | -76.65521 | 140 ft | 4 kts | 176° |
| 2026-05-08 13:23 | 39.17299 | -76.65535 | 140 ft | 13 kts | 207° |
| 2026-05-08 13:23 | 39.17284 | -76.65626 | 140 ft | 19 kts | 274° |
| 2026-05-08 13:23 | 39.17306 | -76.66009 | 144 ft | 75 kts | 274° |
| 2026-05-08 13:23 | 39.17363 | -76.66954 | 153 ft | 136 kts | 274° |
| 2026-05-08 13:24 | 39.17459 | -76.68334 | 411 ft | 165 kts | 275° |
| 2026-05-08 13:24 | 39.17549 | -76.69887 | 1008 ft | 180 kts | 273° |
| 2026-05-08 13:24 | 39.17600 | -76.71523 | 1607 ft | 182 kts | 272° |
| 2026-05-08 13:24 | 39.17628 | -76.73170 | 1996 ft | 188 kts | 272° |
| 2026-05-08 13:25 | 39.17341 | -76.74856 | 2362 ft | 199 kts | 245° |
| 2026-05-08 13:25 | 39.16414 | -76.76233 | 2577 ft | 216 kts | 217° |
| 2026-05-08 13:25 | 39.15001 | -76.76894 | 3090 ft | 217 kts | 189° |
| 2026-05-08 13:25 | 39.13494 | -76.76628 | 3636 ft | 232 kts | 163° |
| 2026-05-08 13:26 | 39.11982 | -76.75651 | 4190 ft | 257 kts | 138° |
| 2026-05-08 13:26 | 39.11009 | -76.73692 | 5053 ft | 264 kts | 115° |
| 2026-05-08 13:26 | 39.10124 | -76.71586 | 5903 ft | 272 kts | 123° |
| 2026-05-08 13:26 | 39.08987 | -76.69597 | 6680 ft | 277 kts | 128° |
| 2026-05-08 13:27 | 39.08186 | -76.67367 | 6977 ft | 280 kts | 96° |
| 2026-05-08 13:27 | 39.08136 | -76.64813 | 7406 ft | 297 kts | 84° |
| 2026-05-08 13:27 | 39.08265 | -76.62121 | 8318 ft | 304 kts | 84° |
| 2026-05-08 13:27 | 39.08408 | -76.59398 | 9406 ft | 308 kts | 84° |
| 2026-05-08 13:28 | 39.08543 | -76.56610 | 10382 ft | 316 kts | 85° |
| 2026-05-08 13:28 | 39.08672 | -76.53679 | 10805 ft | 343 kts | 85° |
| 2026-05-08 13:28 | 39.08799 | -76.50485 | 11190 ft | 368 kts | 85° |
| 2026-05-08 13:28 | 39.08927 | -76.47143 | 11955 ft | 378 kts | 85° |
| 2026-05-08 13:29 | 39.09380 | -76.43809 | 12874 ft | 380 kts | 68° |
| 2026-05-08 13:29 | 39.10268 | -76.40591 | 13859 ft | 384 kts | 66° |
| 2026-05-08 13:29 | 39.11203 | -76.37330 | 14685 ft | 392 kts | 65° |
| 2026-05-08 13:29 | 39.12148 | -76.33985 | 15459 ft | 402 kts | 65° |
| 2026-05-08 13:30 | 39.13094 | -76.30547 | 16262 ft | 412 kts | 66° |
| 2026-05-08 13:30 | 39.14045 | -76.27028 | 17084 ft | 420 kts | 65° |
| 2026-05-08 13:30 | 39.15007 | -76.23434 | 17894 ft | 429 kts | 66° |
| 2026-05-08 13:30 | 39.15725 | -76.19634 | 18620 ft | 444 kts | 77° |
| 2026-05-08 13:31 | 39.16113 | -76.15649 | 19367 ft | 451 kts | 80° |
| 2026-05-08 13:31 | 39.16472 | -76.11607 | 20091 ft | 458 kts | 79° |
| 2026-05-08 13:31 | 39.16892 | -76.07511 | 20789 ft | 464 kts | 78° |
| 2026-05-08 13:31 | 39.17360 | -76.03372 | 21507 ft | 470 kts | 78° |
| 2026-05-08 13:32 | 39.17847 | -75.99175 | 22237 ft | 476 kts | 78° |
| 2026-05-08 13:32 | 39.18334 | -75.94937 | 22986 ft | 482 kts | 78° |
| 2026-05-08 13:32 | 39.19037 | -75.90709 | 23611 ft | 481 kts | 63° |
| 2026-05-08 13:32 | 39.20531 | -75.86985 | 24175 ft | 470 kts | 46° |
| 2026-05-08 13:33 | 39.22681 | -75.83904 | 24815 ft | 455 kts | 32° |
| 2026-05-08 13:33 | 39.25095 | -75.81265 | 25435 ft | 456 kts | 30° |
| 2026-05-08 13:33 | 39.27565 | -75.78662 | 25979 ft | 461 kts | 29° |
| 2026-05-08 13:33 | 39.30073 | -75.76018 | 26464 ft | 467 kts | 30° |
| 2026-05-08 13:34 | 39.32593 | -75.73317 | 26985 ft | 473 kts | 31° |
| 2026-05-08 13:34 | 39.35116 | -75.70567 | 27547 ft | 477 kts | 31° |
| 2026-05-08 13:34 | 39.37653 | -75.67773 | 28145 ft | 480 kts | 31° |
| 2026-05-08 13:34 | 39.40205 | -75.64953 | 28657 ft | 485 kts | 31° |
| 2026-05-08 13:35 | 39.42783 | -75.62109 | 29127 ft | 489 kts | 31° |
| 2026-05-08 13:35 | 39.45386 | -75.59242 | 29596 ft | 493 kts | 31° |
| 2026-05-08 13:35 | 39.48006 | -75.56364 | 30054 ft | 497 kts | 31° |
| 2026-05-08 13:35 | 39.50654 | -75.53457 | 30433 ft | 500 kts | 31° |
| 2026-05-08 13:36 | 39.53285 | -75.50564 | 30802 ft | 504 kts | 31° |
| 2026-05-08 13:36 | 39.55960 | -75.47614 | 31222 ft | 506 kts | 31° |
| 2026-05-08 13:36 | 39.58634 | -75.44659 | 31748 ft | 505 kts | 31° |
| 2026-05-08 13:36 | 39.61300 | -75.41712 | 32286 ft | 503 kts | 31° |
| 2026-05-08 13:37 | 39.63973 | -75.38760 | 32706 ft | 504 kts | 31° |
| 2026-05-08 13:37 | 39.66648 | -75.35806 | 33061 ft | 506 kts | 30° |
| 2026-05-08 13:37 | 39.71148 | -75.30832 | 33035 ft | 510 kts | 31° |
| 2026-05-08 13:38 | 39.76520 | -75.24864 | 33029 ft | 503 kts | 31° |
| 2026-05-08 13:38 | 39.81643 | -75.18553 | 33036 ft | 515 kts | 39° |
| 2026-05-08 13:39 | 39.86313 | -75.11416 | 33039 ft | 518 kts | 41° |
| 2026-05-08 13:39 | 39.90980 | -75.04262 | 33015 ft | 518 kts | 40° |
| 2026-05-08 13:40 | 39.95708 | -74.97186 | 33070 ft | 519 kts | 40° |
| 2026-05-08 13:40 | 40.00069 | -74.89648 | 33051 ft | 528 kts | 49° |
| 2026-05-08 13:41 | 40.04051 | -74.81583 | 33038 ft | 528 kts | 50° |
| 2026-05-08 13:41 | 40.08033 | -74.73546 | 33005 ft | 525 kts | 49° |
| 2026-05-08 13:42 | 40.12057 | -74.65596 | 33045 ft | 524 kts | 49° |
| 2026-05-08 13:42 | 40.16088 | -74.57653 | 33016 ft | 523 kts | 49° |
| 2026-05-08 13:43 | 40.19987 | -74.49673 | 33004 ft | 528 kts | 55° |
| 2026-05-08 13:43 | 40.22731 | -74.40657 | 33021 ft | 537 kts | 66° |
| 2026-05-08 13:44 | 40.25048 | -74.31352 | 33017 ft | 537 kts | 67° |
| 2026-05-08 13:44 | 40.27409 | -74.22082 | 33063 ft | 537 kts | 66° |
| 2026-05-08 13:45 | 40.29836 | -74.12809 | 33033 ft | 538 kts | 66° |
| 2026-05-08 13:45 | 40.32247 | -74.03588 | 33004 ft | 538 kts | 66° |
| 2026-05-08 13:46 | 40.34656 | -73.94308 | 33002 ft | 537 kts | 67° |
| 2026-05-08 13:46 | 40.37056 | -73.85035 | 32998 ft | 536 kts | 67° |
| 2026-05-08 13:47 | 40.39451 | -73.75763 | 32994 ft | 536 kts | 67° |
| 2026-05-08 13:47 | 40.41837 | -73.66484 | 33024 ft | 538 kts | 66° |
| 2026-05-08 13:48 | 40.44226 | -73.57169 | 32989 ft | 538 kts | 66° |
| 2026-05-08 13:48 | 40.47186 | -73.48234 | 32994 ft | 531 kts | 57° |
| 2026-05-08 13:49 | 40.50571 | -73.39693 | 32989 ft | 531 kts | 56° |
| 2026-05-08 13:49 | 40.53982 | -73.31072 | 32991 ft | 532 kts | 57° |
| 2026-05-08 13:50 | 40.57322 | -73.22391 | 32986 ft | 533 kts | 57° |
| 2026-05-08 13:50 | 40.60643 | -73.13644 | 32984 ft | 533 kts | 58° |
| 2026-05-08 13:51 | 40.63951 | -73.04899 | 32969 ft | 534 kts | 58° |
| 2026-05-08 13:51 | 40.65607 | -73.00516 | 32649 ft | 536 kts | 57° |
| 2026-05-08 13:51 | 40.67254 | -72.96159 | 31779 ft | 538 kts | 57° |
| 2026-05-08 13:52 | 40.68921 | -72.91739 | 30916 ft | 538 kts | 58° |
| 2026-05-08 13:52 | 40.70591 | -72.87305 | 30022 ft | 540 kts | 57° |
| 2026-05-08 13:52 | 40.72269 | -72.82847 | 28737 ft | 544 kts | 57° |
| 2026-05-08 13:52 | 40.73948 | -72.78379 | 27555 ft | 543 kts | 58° |
| 2026-05-08 13:53 | 40.75618 | -72.73918 | 26664 ft | 536 kts | 58° |
| 2026-05-08 13:53 | 40.77252 | -72.69539 | 25822 ft | 528 kts | 58° |
| 2026-05-08 13:53 | 40.78865 | -72.65215 | 24997 ft | 520 kts | 58° |
| 2026-05-08 13:53 | 40.80448 | -72.60968 | 24182 ft | 511 kts | 59° |
| 2026-05-08 13:54 | 40.82007 | -72.56784 | 23300 ft | 504 kts | 59° |
| 2026-05-08 13:54 | 40.83540 | -72.52666 | 22363 ft | 496 kts | 59° |
| 2026-05-08 13:54 | 40.85045 | -72.48618 | 21571 ft | 487 kts | 59° |
| 2026-05-08 13:54 | 40.86525 | -72.44633 | 20715 ft | 479 kts | 59° |
| 2026-05-08 13:55 | 40.87978 | -72.40716 | 19891 ft | 471 kts | 59° |
| 2026-05-08 13:55 | 40.89391 | -72.36904 | 19088 ft | 464 kts | 59° |
| 2026-05-08 13:55 | 40.92175 | -72.29350 | 17399 ft | 450 kts | 60° |
| 2026-05-08 13:56 | 40.93502 | -72.25636 | 16563 ft | 443 kts | 61° |
| 2026-05-08 13:56 | 40.94792 | -72.21971 | 15767 ft | 436 kts | 61° |
| 2026-05-08 13:56 | 40.96061 | -72.18353 | 14979 ft | 428 kts | 61° |
| 2026-05-08 13:56 | 40.97305 | -72.14811 | 14264 ft | 420 kts | 61° |
| 2026-05-08 13:57 | 40.98528 | -72.11333 | 13502 ft | 414 kts | 61° |
| 2026-05-08 13:57 | 40.99734 | -72.07910 | 12703 ft | 407 kts | 62° |
| 2026-05-08 13:57 | 41.00920 | -72.04540 | 11960 ft | 399 kts | 62° |
| 2026-05-08 13:57 | 41.02081 | -72.01240 | 11390 ft | 389 kts | 62° |
| 2026-05-08 13:58 | 41.03194 | -71.98071 | 11205 ft | 370 kts | 62° |
| 2026-05-08 13:58 | 41.04254 | -71.95045 | 11072 ft | 352 kts | 62° |
| 2026-05-08 13:58 | 41.05258 | -71.92185 | 11031 ft | 333 kts | 60° |
| 2026-05-08 13:58 | 41.06462 | -71.89698 | 11041 ft | 313 kts | 46° |
| 2026-05-08 13:59 | 41.07837 | -71.87493 | 11033 ft | 307 kts | 45° |
| 2026-05-08 13:59 | 41.09198 | -71.85387 | 11004 ft | 293 kts | 44° |
| 2026-05-08 13:59 | 41.10515 | -71.83356 | 10667 ft | 290 kts | 44° |
| 2026-05-08 13:59 | 41.11824 | -71.81328 | 10297 ft | 289 kts | 45° |
| 2026-05-08 14:00 | 41.13120 | -71.79299 | 9931 ft | 288 kts | 45° |
| 2026-05-08 14:00 | 41.14388 | -71.77302 | 9538 ft | 286 kts | 45° |
| 2026-05-08 14:00 | 41.15664 | -71.75281 | 9140 ft | 285 kts | 46° |
| 2026-05-08 14:00 | 41.16934 | -71.73261 | 8745 ft | 285 kts | 46° |
| 2026-05-08 14:01 | 41.18202 | -71.71241 | 8354 ft | 284 kts | 46° |
| 2026-05-08 14:01 | 41.19460 | -71.69230 | 7955 ft | 282 kts | 47° |
| 2026-05-08 14:01 | 41.20714 | -71.67225 | 7571 ft | 281 kts | 47° |
| 2026-05-08 14:01 | 41.21958 | -71.65232 | 7189 ft | 279 kts | 47° |
| 2026-05-08 14:02 | 41.23181 | -71.63271 | 7035 ft | 269 kts | 48° |
| 2026-05-08 14:02 | 41.24345 | -71.61399 | 7025 ft | 259 kts | 47° |
| 2026-05-08 14:02 | 41.25492 | -71.59557 | 7034 ft | 258 kts | 47° |
| 2026-05-08 14:02 | 41.26636 | -71.57721 | 7020 ft | 257 kts | 47° |
| 2026-05-08 14:03 | 41.27773 | -71.55894 | 7017 ft | 256 kts | 47° |
| 2026-05-08 14:03 | 41.28905 | -71.54074 | 7012 ft | 255 kts | 47° |
| 2026-05-08 14:03 | 41.30038 | -71.52251 | 7024 ft | 257 kts | 47° |
| 2026-05-08 14:03 | 41.31191 | -71.50394 | 7034 ft | 261 kts | 47° |
| 2026-05-08 14:04 | 41.32336 | -71.48550 | 7024 ft | 262 kts | 47° |
| 2026-05-08 14:04 | 41.33494 | -71.46682 | 7016 ft | 261 kts | 47° |
| 2026-05-08 14:04 | 41.34646 | -71.44824 | 7016 ft | 260 kts | 47° |
| 2026-05-08 14:04 | 41.35795 | -71.42969 | 7011 ft | 259 kts | 47° |
| 2026-05-08 14:05 | 41.37060 | -71.41306 | 6992 ft | 253 kts | 25° |
| 2026-05-08 14:05 | 41.38696 | -71.40688 | 7019 ft | 242 kts | 358° |
| 2026-05-08 14:05 | 41.40372 | -71.40708 | 7019 ft | 240 kts | 353° |
| 2026-05-08 14:05 | 41.42037 | -71.40826 | 7008 ft | 240 kts | 351° |
| 2026-05-08 14:06 | 41.43705 | -71.40976 | 7008 ft | 241 kts | 351° |
| 2026-05-08 14:06 | 41.45380 | -71.41134 | 7002 ft | 241 kts | 351° |
| 2026-05-08 14:06 | 41.47057 | -71.41291 | 7007 ft | 242 kts | 351° |
| 2026-05-08 14:06 | 41.48739 | -71.41443 | 7002 ft | 243 kts | 351° |
| 2026-05-08 14:07 | 41.50413 | -71.41242 | 6965 ft | 251 kts | 15° |
| 2026-05-08 14:07 | 41.51971 | -71.40088 | 6653 ft | 260 kts | 31° |
| 2026-05-08 14:07 | 41.53441 | -71.38682 | 6307 ft | 260 kts | 33° |
| 2026-05-08 14:07 | 41.54902 | -71.37261 | 5937 ft | 260 kts | 33° |
| 2026-05-08 14:08 | 41.56362 | -71.35838 | 5567 ft | 259 kts | 33° |
| 2026-05-08 14:08 | 41.57817 | -71.34423 | 5201 ft | 258 kts | 33° |
| 2026-05-08 14:08 | 41.59271 | -71.33008 | 4849 ft | 258 kts | 33° |
| 2026-05-08 14:08 | 41.60720 | -71.31599 | 4477 ft | 257 kts | 33° |
| 2026-05-08 14:09 | 41.62163 | -71.30194 | 4114 ft | 256 kts | 33° |
| 2026-05-08 14:09 | 41.63603 | -71.28787 | 3745 ft | 256 kts | 33° |
| 2026-05-08 14:09 | 41.65032 | -71.27383 | 3389 ft | 255 kts | 33° |
| 2026-05-08 14:09 | 41.66454 | -71.25979 | 3053 ft | 252 kts | 33° |
| 2026-05-08 14:10 | 41.67828 | -71.24611 | 2986 ft | 239 kts | 33° |
| 2026-05-08 14:10 | 41.69147 | -71.23309 | 2986 ft | 234 kts | 33° |
| 2026-05-08 14:10 | 41.70449 | -71.22019 | 2987 ft | 232 kts | 33° |
| 2026-05-08 14:10 | 41.71725 | -71.20744 | 3013 ft | 234 kts | 33° |
| 2026-05-08 14:11 | 41.73042 | -71.19430 | 2983 ft | 236 kts | 33° |
| 2026-05-08 14:11 | 41.74362 | -71.18123 | 3003 ft | 236 kts | 33° |
| 2026-05-08 14:11 | 41.75684 | -71.16818 | 3014 ft | 237 kts | 32° |
| 2026-05-08 14:11 | 41.77013 | -71.15509 | 2980 ft | 235 kts | 33° |
| 2026-05-08 14:12 | 41.78320 | -71.14202 | 2974 ft | 233 kts | 33° |
| 2026-05-08 14:12 | 41.79617 | -71.12905 | 2986 ft | 233 kts | 33° |
| 2026-05-08 14:12 | 41.80920 | -71.11611 | 2990 ft | 233 kts | 33° |
| 2026-05-08 14:12 | 41.82229 | -71.10317 | 2992 ft | 234 kts | 33° |
| 2026-05-08 14:13 | 41.83549 | -71.09027 | 2996 ft | 234 kts | 28° |
| 2026-05-08 14:13 | 41.85058 | -71.08379 | 2989 ft | 227 kts | 357° |
| 2026-05-08 14:13 | 41.86515 | -71.08919 | 3002 ft | 220 kts | 324° |
| 2026-05-08 14:13 | 41.87583 | -71.10364 | 3001 ft | 218 kts | 307° |
| 2026-05-08 14:14 | 41.88507 | -71.12007 | 2877 ft | 222 kts | 305° |
| 2026-05-08 14:14 | 41.89430 | -71.13677 | 2759 ft | 222 kts | 305° |
| 2026-05-08 14:14 | 41.90340 | -71.15330 | 2622 ft | 217 kts | 305° |
| 2026-05-08 14:14 | 41.91233 | -71.16957 | 2490 ft | 216 kts | 305° |
| 2026-05-08 14:15 | 41.92120 | -71.18586 | 2356 ft | 216 kts | 303° |
| 2026-05-08 14:15 | 41.92640 | -71.20450 | 2215 ft | 215 kts | 272° |
| 2026-05-08 14:15 | 41.92349 | -71.22398 | 2194 ft | 213 kts | 253° |
| 2026-05-08 14:15 | 41.91845 | -71.24270 | 2204 ft | 214 kts | 251° |
| 2026-05-08 14:16 | 41.91292 | -71.26128 | 2201 ft | 217 kts | 243° |
| 2026-05-08 14:16 | 41.90184 | -71.27495 | 2201 ft | 225 kts | 216° |
| 2026-05-08 14:16 | 41.88922 | -71.28721 | 2194 ft | 222 kts | 219° |
| 2026-05-08 14:16 | 41.87625 | -71.29854 | 2185 ft | 223 kts | 215° |
| 2026-05-08 14:17 | 41.86307 | -71.30944 | 2192 ft | 224 kts | 214° |
| 2026-05-08 14:17 | 41.84988 | -71.32064 | 2176 ft | 223 kts | 217° |
| 2026-05-08 14:17 | 41.83713 | -71.33139 | 2185 ft | 208 kts | 216° |
| 2026-05-08 14:17 | 41.82559 | -71.34081 | 2168 ft | 180 kts | 216° |
| 2026-05-08 14:18 | 41.81552 | -71.34924 | 2051 ft | 163 kts | 217° |
| 2026-05-08 14:18 | 41.80637 | -71.35703 | 1883 ft | 148 kts | 217° |
| 2026-05-08 14:18 | 41.79794 | -71.36414 | 1684 ft | 138 kts | 217° |
| 2026-05-08 14:18 | 41.78983 | -71.37098 | 1467 ft | 135 kts | 217° |
| 2026-05-08 14:19 | 41.78200 | -71.37755 | 1292 ft | 133 kts | 219° |
| 2026-05-08 14:19 | 41.77412 | -71.38421 | 1116 ft | 136 kts | 216° |
| 2026-05-08 14:19 | 41.76610 | -71.39095 | 923 ft | 135 kts | 218° |
| 2026-05-08 14:19 | 41.75844 | -71.39742 | 732 ft | 130 kts | 218° |
| 2026-05-08 14:20 | 41.75070 | -71.40346 | 494 ft | 127 kts | 216° |
| 2026-05-08 14:20 | 41.74301 | -71.40975 | 409 ft | 131 kts | 218° |
| 2026-05-08 14:20 | 41.73531 | -71.41674 | 246 ft | 136 kts | 220° |
| 2026-05-08 14:20 | 41.72754 | -71.42339 | 58 ft | 132 kts | 216° |
| 2026-05-08 14:21 | 41.72092 | -71.42902 | 51 ft | 84 kts | 211° |
| 2026-05-08 14:21 | 41.71823 | -71.43148 | 52 ft | 24 kts | 238° |
| 2026-05-08 14:21 | 41.71844 | -71.43286 | 53 ft | 14 kts | 303° |
| 2026-05-08 14:21 | 41.71895 | -71.43390 | 53 ft | 13 kts | 303° |
| 2026-05-08 14:22 | 41.71944 | -71.43493 | 52 ft | 13 kts | 303° |
| 2026-05-08 14:22 | 41.71993 | -71.43593 | 57 ft | 13 kts | 303° |
| 2026-05-08 14:22 | 41.72055 | -71.43671 | 53 ft | 13 kts | 353° |
| 2026-05-08 14:22 | 41.72143 | -71.43602 | 50 ft | 17 kts | 33° |
| 2026-05-08 14:23 | 41.72212 | -71.43541 | 53 ft | 19 kts | 33° |
| 2026-05-08 14:23 | 41.72327 | -71.43442 | 54 ft | 20 kts | 32° |
| 2026-05-08 14:23 | 41.72474 | -71.43322 | 58 ft | 16 kts | 31° |
| 2026-05-08 14:23 | 41.72550 | -71.43311 | 55 ft | 11 kts | 322° |
| 2026-05-08 14:24 | 41.72574 | -71.43369 | 54 ft | 10 kts | 296° |
| 2026-05-08 14:24 | 41.72601 | -71.43426 | 56 ft | 0 kts | 304° |
| 2026-05-08 14:24 | 41.72601 | -71.43428 | 56 ft | 0 kts | 304° |